createdAt,value
2022-08-27T00:01:40.081Z,76.38
2022-08-27T00:04:09.313Z,75.82
2022-08-27T00:06:37.287Z,75.54
2022-08-27T00:09:06.509Z,75.90
2022-08-27T00:11:34.692Z,75.85
2022-08-27T00:14:02.998Z,75.69
2022-08-27T00:16:30.913Z,76.01
2022-08-27T00:18:59.413Z,75.79
2022-08-27T00:21:28.690Z,75.66
2022-08-27T00:23:56.577Z,76.18
2022-08-27T00:26:24.559Z,76.24
2022-08-27T00:28:53.240Z,76.16
2022-08-27T00:31:27.161Z,75.70
2022-08-27T00:33:55.658Z,75.82
2022-08-27T00:36:23.551Z,74.91
2022-08-27T00:38:53.941Z,76.03
2022-08-27T00:41:22.599Z,76.46
2022-08-27T00:43:54.481Z,75.66
2022-08-27T00:46:27.867Z,75.95
2022-08-27T00:48:59.705Z,75.32
2022-08-27T00:51:29.779Z,75.59
2022-08-27T00:54:00.219Z,75.21
2022-08-27T00:56:33.199Z,74.79
2022-08-27T00:59:03.441Z,75.27
2022-08-27T01:01:35.817Z,75.29
2022-08-27T01:04:06.514Z,74.88
2022-08-27T01:06:37.901Z,75.09
2022-08-27T01:09:13.253Z,74.88
2022-08-27T01:11:41.079Z,75.27
2022-08-27T01:14:08.867Z,75.36
2022-08-27T01:16:40.829Z,75.59
2022-08-27T01:19:11.876Z,75.23
2022-08-27T01:21:54.623Z,75.04
2022-08-27T01:24:32.041Z,74.85
2022-08-27T01:27:00.983Z,74.52
2022-08-27T01:29:29.457Z,74.34
2022-08-27T01:32:01.284Z,74.77
2022-08-27T01:34:29.141Z,73.75
2022-08-27T01:36:57.325Z,74.87
2022-08-27T01:39:26.886Z,73.71
2022-08-27T01:41:57.777Z,74.35
2022-08-27T01:44:25.545Z,74.46
2022-08-27T01:46:53.455Z,73.42
2022-08-27T01:49:21.447Z,73.14
2022-08-27T01:51:49.425Z,73.40
2022-08-27T01:54:17.251Z,73.03
2022-08-27T01:56:46.647Z,72.94
2022-08-27T01:59:14.476Z,72.87
2022-08-27T02:01:42.416Z,73.04
2022-08-27T02:04:10.300Z,72.91
2022-08-27T02:06:38.241Z,73.54
2022-08-27T02:09:06.092Z,73.59
2022-08-27T02:11:33.903Z,73.99
2022-08-27T02:14:14.101Z,72.37
2022-08-27T02:16:52.167Z,72.99
2022-08-27T02:19:21.555Z,72.60
2022-08-27T02:21:50.455Z,73.08
2022-08-27T02:24:18.242Z,73.01
2022-08-27T02:26:46.129Z,72.74
2022-08-27T02:29:15.367Z,72.75
2022-08-27T02:31:43.341Z,72.89
2022-08-27T02:34:11.325Z,72.83
2022-08-27T02:36:39.269Z,72.49
2022-08-27T02:39:07.837Z,72.85
2022-08-27T02:41:36.401Z,72.39
2022-08-27T02:44:04.741Z,72.60
2022-08-27T02:46:39.903Z,72.93
2022-08-27T02:49:07.824Z,72.69
2022-08-27T02:51:35.636Z,72.77
2022-08-27T02:54:03.852Z,72.63
2022-08-27T02:56:31.619Z,72.82
2022-08-27T02:59:00.031Z,72.46
2022-08-27T03:01:28.069Z,72.84
2022-08-27T03:03:58.177Z,72.62
2022-08-27T03:06:25.972Z,72.65
2022-08-27T03:08:53.783Z,72.42
2022-08-27T03:11:22.474Z,72.77
2022-08-27T03:13:50.371Z,72.57
2022-08-27T03:16:18.207Z,72.48
2022-08-27T03:18:45.676Z,72.96
2022-08-27T03:21:20.502Z,73.00
2022-08-27T03:23:48.616Z,72.94
2022-08-27T03:26:16.833Z,73.26
2022-08-27T03:28:45.480Z,73.37
2022-08-27T03:31:17.520Z,73.26
2022-08-27T03:33:45.358Z,73.36
2022-08-27T03:36:13.281Z,73.58
2022-08-27T03:38:42.432Z,73.15
2022-08-27T03:41:10.352Z,73.46
2022-08-27T03:43:38.156Z,73.40
2022-08-27T03:46:06.167Z,73.63
2022-08-27T03:48:34.908Z,73.75
2022-08-27T03:51:06.728Z,73.58
2022-08-27T03:53:35.585Z,73.83
2022-08-27T03:56:06.244Z,73.72
2022-08-27T03:58:34.689Z,73.77
2022-08-27T04:01:02.601Z,73.79
2022-08-27T04:03:30.597Z,73.92
2022-08-27T04:05:58.652Z,73.96
2022-08-27T04:08:27.254Z,73.82
2022-08-27T04:10:55.599Z,73.91
2022-08-27T04:13:25.464Z,73.99
2022-08-27T04:15:54.952Z,73.90
2022-08-27T04:18:22.924Z,74.11
2022-08-27T04:20:52.647Z,74.16
2022-08-27T04:23:21.143Z,74.13
2022-08-27T04:25:48.942Z,74.06
2022-08-27T04:28:17.787Z,74.55
2022-08-27T04:30:47.828Z,74.28
2022-08-27T04:33:16.250Z,73.96
2022-08-27T04:35:44.819Z,73.96
2022-08-27T04:38:12.816Z,74.02
2022-08-27T04:40:58.167Z,73.64
2022-08-27T04:43:28.634Z,73.37
2022-08-27T04:45:57.848Z,73.70
2022-08-27T04:48:26.522Z,73.44
2022-08-27T04:50:54.431Z,73.69
2022-08-27T04:53:22.282Z,73.52
2022-08-27T04:55:52.991Z,73.69
2022-08-27T04:58:22.368Z,73.51
2022-08-27T05:00:53.848Z,73.41
2022-08-27T05:03:26.106Z,73.34
2022-08-27T05:05:55.228Z,73.48
2022-08-27T05:08:22.988Z,73.47
2022-08-27T05:10:52.617Z,73.42
2022-08-27T05:13:23.951Z,73.38
2022-08-27T05:15:59.042Z,73.59
2022-08-27T05:18:28.897Z,73.28
2022-08-27T05:20:58.287Z,73.10
2022-08-27T05:23:27.993Z,73.22
2022-08-27T05:25:57.070Z,73.08
2022-08-27T05:28:28.074Z,73.10
2022-08-27T05:31:03.494Z,73.31
2022-08-27T05:33:33.485Z,73.17
2022-08-27T05:36:02.201Z,73.33
2022-08-27T05:38:31.513Z,73.47
2022-08-27T05:41:08.968Z,73.47
2022-08-27T05:43:38.169Z,73.31
2022-08-27T05:46:07.559Z,73.51
2022-08-27T05:48:37.947Z,74.03
2022-08-27T05:51:11.012Z,73.72
2022-08-27T05:53:39.950Z,73.85
2022-08-27T05:56:14.584Z,73.63
2022-08-27T05:59:00.231Z,73.59
2022-08-27T06:01:29.420Z,74.13
2022-08-27T06:03:58.893Z,74.58
2022-08-27T06:06:26.724Z,74.73
2022-08-27T06:08:55.256Z,74.72
2022-08-27T06:11:24.409Z,74.37
2022-08-27T06:13:52.305Z,74.35
2022-08-27T06:16:21.115Z,73.98
2022-08-27T06:18:50.332Z,74.20
2022-08-27T06:21:24.452Z,74.34
2022-08-27T06:23:52.817Z,74.05
2022-08-27T06:26:23.014Z,74.40
2022-08-27T06:28:50.802Z,74.30
2022-08-27T06:31:20.624Z,74.44
2022-08-27T06:33:50.345Z,74.23
2022-08-27T06:36:21.735Z,74.37
2022-08-27T06:38:50.091Z,74.97
2022-08-27T06:41:23.250Z,75.29
2022-08-27T06:43:52.980Z,76.39
2022-08-27T06:46:23.174Z,76.49
2022-08-27T06:48:53.257Z,77.06
2022-08-27T06:51:26.240Z,78.06
2022-08-27T06:53:56.065Z,77.85
2022-08-27T06:56:24.180Z,78.69
2022-08-27T06:58:54.050Z,78.49
2022-08-27T07:01:23.848Z,79.26
2022-08-27T07:03:51.730Z,78.88
2022-08-27T07:06:19.515Z,78.73
2022-08-27T07:08:53.097Z,78.00
2022-08-27T07:11:22.088Z,77.81
2022-08-27T07:13:51.253Z,77.64
2022-08-27T07:16:23.289Z,77.47
2022-08-27T07:18:52.405Z,77.53
2022-08-27T07:21:20.881Z,77.34
2022-08-27T07:23:51.697Z,76.84
2022-08-27T07:26:21.756Z,77.08
2022-08-27T07:28:50.392Z,76.35
2022-08-27T07:31:22.898Z,76.41
2022-08-27T07:33:52.880Z,76.29
2022-08-27T07:36:21.771Z,76.15
2022-08-27T07:38:56.516Z,76.37
2022-08-27T07:41:30.605Z,76.12
2022-08-27T07:44:16.833Z,75.57
2022-08-27T07:46:47.970Z,75.43
2022-08-27T07:49:17.365Z,75.35
2022-08-27T07:51:45.601Z,75.41
2022-08-27T07:54:14.928Z,74.71
2022-08-27T07:56:44.287Z,74.45
2022-08-27T07:59:24.050Z,74.25
2022-08-27T08:01:52.487Z,73.99
2022-08-27T08:04:20.841Z,73.90
2022-08-27T08:06:49.163Z,74.17
2022-08-27T08:09:18.340Z,74.21
2022-08-27T08:11:46.278Z,74.44
2022-08-27T08:14:14.063Z,73.73
2022-08-27T08:16:42.021Z,73.80
2022-08-27T08:19:10.259Z,73.27
2022-08-27T08:21:39.028Z,73.10
2022-08-27T08:24:07.352Z,72.83
2022-08-27T08:26:36.963Z,71.73
2022-08-27T08:29:05.459Z,71.18
2022-08-27T08:31:33.754Z,71.09
2022-08-27T08:34:01.495Z,70.21
2022-08-27T08:36:29.397Z,69.73
2022-08-27T08:38:57.396Z,69.40
2022-08-27T08:41:38.971Z,69.09
2022-08-27T08:44:17.677Z,68.75
2022-08-27T08:46:51.213Z,68.39
2022-08-27T08:49:38.806Z,68.37
2022-08-27T08:52:31.608Z,68.79
2022-08-27T08:55:08.527Z,68.18
2022-08-27T08:57:40.670Z,67.59
2022-08-27T09:00:13.170Z,67.44
2022-08-27T09:02:42.012Z,67.41
2022-08-27T09:05:11.421Z,67.22
2022-08-27T09:07:47.315Z,66.95
2022-08-27T09:10:24.989Z,66.96
2022-08-27T09:12:56.912Z,66.59
2022-08-27T09:15:30.081Z,66.30
2022-08-27T09:18:06.934Z,66.10
2022-08-27T09:20:38.050Z,65.95
2022-08-27T09:23:15.752Z,66.18
2022-08-27T09:25:44.867Z,65.84
2022-08-27T09:28:28.767Z,65.89
2022-08-27T09:31:01.817Z,65.78
2022-08-27T09:33:44.646Z,65.80
2022-08-27T09:36:23.591Z,65.58
2022-08-27T09:38:57.805Z,65.00
2022-08-27T09:41:29.020Z,64.72
2022-08-27T09:44:01.537Z,64.86
2022-08-27T09:46:31.544Z,64.47
2022-08-27T09:49:10.437Z,62.75
2022-08-27T09:51:42.199Z,62.95
2022-08-27T09:54:11.667Z,62.39
2022-08-27T09:56:41.236Z,62.61
2022-08-27T09:59:11.138Z,62.30
2022-08-27T10:01:52.368Z,61.74
2022-08-27T10:04:28.432Z,61.45
2022-08-27T10:06:56.315Z,61.10
2022-08-27T10:09:29.714Z,60.28
2022-08-27T10:12:04.502Z,59.79
2022-08-27T10:14:39.322Z,59.85
2022-08-27T10:17:17.988Z,59.53
2022-08-27T10:20:00.382Z,59.77
2022-08-27T10:22:38.291Z,59.63
2022-08-27T10:25:16.133Z,59.77
2022-08-27T10:27:52.901Z,60.32
2022-08-27T10:30:25.925Z,60.28
2022-08-27T10:33:07.878Z,60.60
2022-08-27T10:35:54.725Z,60.24
2022-08-27T10:38:26.100Z,60.46
2022-08-27T10:41:02.903Z,60.22
2022-08-27T10:43:52.327Z,60.14
2022-08-27T10:46:50.357Z,60.19
2022-08-27T10:49:25.444Z,60.15
2022-08-27T10:51:58.998Z,59.98
2022-08-27T10:54:33.334Z,60.07
2022-08-27T10:57:28.522Z,60.01
2022-08-27T11:00:04.334Z,59.89
2022-08-27T11:02:36.995Z,59.75
2022-08-27T11:05:15.617Z,59.48
2022-08-27T11:07:48.562Z,59.59
2022-08-27T11:10:23.292Z,59.45
2022-08-27T11:12:54.442Z,59.37
2022-08-27T11:15:27.021Z,58.78
2022-08-27T11:18:01.358Z,58.59
2022-08-27T11:20:35.566Z,59.00
2022-08-27T11:23:07.460Z,58.69
2022-08-27T11:25:42.449Z,58.36
2022-08-27T11:28:12.316Z,58.27
2022-08-27T11:30:52.846Z,58.24
2022-08-27T11:33:28.559Z,57.48
2022-08-27T11:36:24.980Z,57.71
2022-08-27T11:38:56.467Z,57.65
2022-08-27T11:41:53.594Z,57.41
2022-08-27T11:44:25.390Z,57.36
2022-08-27T11:46:57.701Z,56.68
2022-08-27T11:49:30.779Z,57.00
2022-08-27T11:52:03.818Z,57.51
2022-08-27T11:54:44.273Z,57.07
2022-08-27T11:57:16.484Z,57.00
2022-08-27T11:59:44.361Z,56.66
2022-08-27T12:02:21.699Z,57.14
2022-08-27T12:04:50.918Z,56.65
2022-08-27T12:07:34.792Z,56.86
2022-08-27T12:10:26.296Z,56.77
2022-08-27T12:13:01.113Z,56.33
2022-08-27T12:15:41.181Z,56.46
2022-08-27T12:18:18.407Z,56.25
2022-08-27T12:20:53.984Z,56.49
2022-08-27T12:23:42.593Z,56.65
2022-08-27T12:26:22.155Z,56.03
2022-08-27T12:28:49.951Z,56.21
2022-08-27T12:31:20.674Z,56.62
2022-08-27T12:33:51.762Z,56.49
2022-08-27T12:36:27.940Z,57.00
2022-08-27T12:39:00.454Z,56.11
2022-08-27T12:41:32.028Z,56.12
2022-08-27T12:44:05.830Z,56.36
2022-08-27T12:46:34.677Z,56.62
2022-08-27T12:49:36.803Z,56.47
2022-08-27T12:51:53.931Z,56.30
2022-08-27T12:54:36.650Z,56.47
2022-08-27T12:57:11.917Z,56.61
2022-08-27T13:00:04.362Z,56.42
2022-08-27T13:02:50.882Z,56.57
2022-08-27T13:05:21.591Z,56.49
2022-08-27T13:07:51.799Z,56.50
2022-08-27T13:10:26.080Z,55.68
2022-08-27T13:13:04.531Z,55.73
2022-08-27T13:15:34.102Z,55.45
2022-08-27T13:18:03.790Z,55.55
2022-08-27T13:20:33.338Z,55.31
2022-08-27T13:23:01.226Z,55.47
2022-08-27T13:25:33.239Z,55.31
2022-08-27T13:28:07.950Z,55.03
2022-08-27T13:30:38.155Z,54.98
2022-08-27T13:33:08.618Z,55.27
2022-08-27T13:35:37.645Z,54.36
2022-08-27T13:38:06.018Z,54.44
2022-08-27T13:40:37.795Z,54.29
2022-08-27T13:43:10.719Z,53.88
2022-08-27T13:45:41.537Z,53.51
2022-08-27T13:48:12.333Z,53.20
2022-08-27T13:50:50.547Z,52.71
2022-08-27T13:53:40.839Z,52.27
2022-08-27T13:56:10.671Z,52.47
2022-08-27T13:58:38.723Z,52.18
2022-08-27T14:01:13.547Z,52.05
2022-08-27T14:03:50.046Z,52.38
2022-08-27T14:06:35.550Z,51.39
2022-08-27T14:09:18.938Z,50.97
2022-08-27T14:11:48.812Z,50.09
2022-08-27T14:14:19.094Z,49.44
2022-08-27T14:16:58.209Z,49.16
2022-08-27T14:19:29.257Z,48.72
2022-08-27T14:22:02.940Z,48.41
2022-08-27T14:24:30.766Z,48.10
2022-08-27T14:27:10.108Z,47.92
2022-08-27T14:29:38.090Z,47.63
2022-08-27T14:32:07.372Z,47.72
2022-08-27T14:34:35.221Z,47.66
2022-08-27T14:37:03.970Z,47.51
2022-08-27T14:39:32.550Z,47.28
2022-08-27T14:42:00.463Z,47.23
2022-08-27T14:44:29.728Z,47.43
2022-08-27T14:46:58.726Z,47.54
2022-08-27T14:49:30.349Z,47.56
2022-08-27T14:51:58.341Z,47.09
2022-08-27T14:54:29.064Z,47.20
2022-08-27T14:57:02.248Z,47.33
2022-08-27T14:59:31.826Z,47.23
2022-08-27T15:02:01.701Z,46.63
2022-08-27T15:04:30.713Z,46.03
2022-08-27T15:06:58.813Z,46.01
2022-08-27T15:09:27.806Z,46.29
2022-08-27T15:11:57.189Z,46.25
2022-08-27T15:14:28.265Z,46.97
2022-08-27T15:16:57.468Z,47.67
2022-08-27T15:19:27.080Z,48.13
2022-08-27T15:21:57.622Z,48.02
2022-08-27T15:24:29.523Z,48.40
2022-08-27T15:26:58.540Z,48.51
2022-08-27T15:29:27.747Z,48.65
2022-08-27T15:31:57.156Z,49.23
2022-08-27T15:34:24.973Z,49.33
2022-08-27T15:36:52.733Z,49.68
2022-08-27T15:39:20.524Z,49.59
2022-08-27T15:42:05.734Z,49.84
2022-08-27T15:44:34.539Z,50.10
2022-08-27T15:47:03.711Z,49.76
2022-08-27T15:49:31.491Z,50.13
2022-08-27T15:51:59.769Z,50.13
2022-08-27T15:54:28.022Z,49.92
2022-08-27T15:56:55.984Z,49.96
2022-08-27T15:59:23.830Z,49.74
2022-08-27T16:01:52.087Z,49.22
2022-08-27T16:04:21.956Z,50.08
2022-08-27T16:06:50.224Z,49.60
2022-08-27T16:09:19.066Z,49.65
2022-08-27T16:11:46.937Z,49.92
2022-08-27T16:14:15.727Z,49.66
2022-08-27T16:16:46.587Z,50.02
2022-08-27T16:19:16.718Z,49.88
2022-08-27T16:21:46.269Z,49.71
2022-08-27T16:24:14.841Z,50.41
2022-08-27T16:26:42.602Z,50.33
2022-08-27T16:29:10.596Z,50.02
2022-08-27T16:31:38.784Z,50.58
2022-08-27T16:34:15.136Z,50.89
2022-08-27T16:36:43.087Z,51.54
2022-08-27T16:39:12.211Z,51.49
2022-08-27T16:41:40.104Z,51.70
2022-08-27T16:44:07.903Z,52.19
2022-08-27T16:46:36.071Z,52.02
2022-08-27T16:49:22.420Z,52.69
2022-08-27T16:51:50.472Z,53.24
2022-08-27T16:54:20.080Z,53.20
2022-08-27T16:56:47.851Z,53.40
2022-08-27T16:59:15.851Z,53.48
2022-08-27T17:01:44.811Z,53.97
2022-08-27T17:04:21.519Z,53.96
2022-08-27T17:06:54.925Z,53.56
2022-08-27T17:09:25.298Z,53.57
2022-08-27T17:11:56.895Z,53.91
2022-08-27T17:14:25.381Z,53.90
2022-08-27T17:16:54.257Z,53.86
2022-08-27T17:19:24.431Z,54.23
2022-08-27T17:21:54.824Z,54.32
2022-08-27T17:24:23.040Z,54.21
2022-08-27T17:26:52.253Z,54.24
2022-08-27T17:29:20.109Z,54.47
2022-08-27T17:31:47.925Z,54.04
2022-08-27T17:34:18.493Z,54.44
2022-08-27T17:36:46.673Z,54.52
2022-08-27T17:39:15.191Z,55.16
2022-08-27T17:41:45.191Z,55.60
2022-08-27T17:44:21.300Z,55.87
2022-08-27T17:46:49.305Z,55.81
2022-08-27T17:49:18.745Z,56.08
2022-08-27T17:51:48.357Z,56.40
2022-08-27T17:54:28.351Z,56.76
2022-08-27T17:56:56.413Z,57.00
2022-08-27T17:59:26.116Z,57.25
2022-08-27T18:01:54.329Z,57.49
2022-08-27T18:04:22.664Z,57.61
2022-08-27T18:06:50.982Z,57.56
2022-08-27T18:09:18.849Z,57.76
2022-08-27T18:11:47.341Z,58.00
2022-08-27T18:14:18.577Z,58.07
2022-08-27T18:16:48.271Z,57.82
2022-08-27T18:19:16.663Z,58.16
2022-08-27T18:21:46.903Z,58.57
2022-08-27T18:24:15.656Z,58.62
2022-08-27T18:26:45.436Z,58.84
2022-08-27T18:29:15.469Z,58.93
2022-08-27T18:31:44.426Z,59.19
2022-08-27T18:34:17.525Z,59.44
2022-08-27T18:36:48.000Z,59.54
2022-08-27T18:39:15.837Z,59.70
2022-08-27T18:41:44.160Z,59.50
2022-08-27T18:44:17.128Z,59.86
2022-08-27T18:46:45.748Z,59.89
2022-08-27T18:49:15.175Z,60.13
2022-08-27T18:51:46.176Z,60.21
2022-08-27T18:54:17.161Z,60.43
2022-08-27T18:56:44.968Z,60.56
2022-08-27T18:59:13.753Z,60.83
2022-08-27T19:01:41.883Z,61.20
2022-08-27T19:04:11.161Z,61.48
2022-08-27T19:06:40.337Z,61.56
2022-08-27T19:09:08.160Z,61.94
2022-08-27T19:11:35.967Z,61.88
2022-08-27T19:14:03.797Z,62.11
2022-08-27T19:16:41.119Z,62.20
2022-08-27T19:19:09.065Z,62.34
2022-08-27T19:21:38.153Z,62.48
2022-08-27T19:24:08.533Z,62.58
2022-08-27T19:26:37.323Z,62.47
2022-08-27T19:29:05.695Z,62.81
2022-08-27T19:31:36.374Z,62.72
2022-08-27T19:34:05.439Z,62.84
2022-08-27T19:36:34.916Z,63.09
2022-08-27T19:39:02.895Z,63.27
2022-08-27T19:41:32.160Z,63.22
2022-08-27T19:44:00.108Z,63.51
2022-08-27T19:46:29.019Z,63.34
2022-08-27T19:48:57.932Z,63.66
2022-08-27T19:51:26.317Z,63.66
2022-08-27T19:53:54.197Z,63.92
2022-08-27T19:56:22.318Z,63.98
2022-08-27T19:58:55.317Z,63.77
2022-08-27T20:01:25.666Z,63.74
2022-08-27T20:03:53.564Z,63.79
2022-08-27T20:06:26.736Z,63.73
2022-08-27T20:08:54.559Z,63.87
2022-08-27T20:11:22.978Z,64.10
2022-08-27T20:13:52.466Z,64.14
2022-08-27T20:16:20.327Z,64.23
2022-08-27T20:18:48.238Z,64.37
2022-08-27T20:21:16.023Z,64.24
2022-08-27T20:23:43.791Z,64.48
2022-08-27T20:26:11.599Z,64.53
2022-08-27T20:28:40.546Z,64.58
2022-08-27T20:31:10.095Z,64.51
2022-08-27T20:33:38.189Z,64.38
2022-08-27T20:36:07.999Z,64.74
2022-08-27T20:38:35.991Z,64.87
2022-08-27T20:41:03.925Z,64.74
2022-08-27T20:43:31.839Z,64.90
2022-08-27T20:46:00.365Z,65.09
2022-08-27T20:48:29.912Z,64.83
2022-08-27T20:50:57.793Z,64.69
2022-08-27T20:53:25.998Z,64.66
2022-08-27T20:55:56.553Z,64.77
2022-08-27T20:58:42.816Z,64.51
2022-08-27T21:01:11.838Z,64.99
2022-08-27T21:03:41.222Z,64.68
2022-08-27T21:06:09.116Z,64.48
2022-08-27T21:08:38.803Z,64.65
2022-08-27T21:11:11.247Z,64.52
2022-08-27T21:13:54.889Z,64.69
2022-08-27T21:16:23.982Z,64.66
2022-08-27T21:18:54.004Z,64.49
2022-08-27T21:21:22.010Z,64.48
2022-08-27T21:23:49.906Z,64.48
2022-08-27T21:26:17.711Z,64.41
2022-08-27T21:28:45.473Z,64.64
2022-08-27T21:31:13.484Z,64.61
2022-08-27T21:33:41.278Z,64.48
2022-08-27T21:36:12.408Z,64.72
2022-08-27T21:38:40.536Z,64.80
2022-08-27T21:41:08.491Z,64.73
2022-08-27T21:43:36.296Z,64.83
2022-08-27T21:46:04.469Z,64.76
2022-08-27T21:48:32.268Z,64.99
2022-08-27T21:51:00.107Z,65.00
2022-08-27T21:53:30.209Z,64.97
2022-08-27T21:55:58.057Z,65.10
2022-08-27T21:58:26.724Z,65.25
2022-08-27T22:00:54.989Z,65.45
2022-08-27T22:03:24.861Z,65.29
2022-08-27T22:05:53.810Z,65.38
2022-08-27T22:08:23.162Z,64.93
2022-08-27T22:10:54.692Z,64.89
2022-08-27T22:13:23.085Z,64.80
2022-08-27T22:15:51.121Z,64.68
2022-08-27T22:18:19.619Z,64.63
2022-08-27T22:20:51.755Z,64.58
2022-08-27T22:23:19.813Z,64.20
2022-08-27T22:25:47.805Z,63.93
2022-08-27T22:28:19.372Z,63.69
2022-08-27T22:30:47.278Z,63.51
2022-08-27T22:33:15.279Z,63.39
2022-08-27T22:35:43.242Z,63.33
2022-08-27T22:38:11.734Z,63.05
2022-08-27T22:40:40.084Z,63.15
2022-08-27T22:43:08.700Z,62.73
2022-08-27T22:45:37.927Z,62.77
2022-08-27T22:48:05.837Z,62.59
2022-08-27T22:50:33.794Z,62.45
2022-08-27T22:53:01.629Z,62.43
2022-08-27T22:55:29.468Z,62.39
2022-08-27T22:57:57.392Z,62.17
2022-08-27T23:00:29.084Z,62.22
2022-08-27T23:02:58.926Z,62.08
2022-08-27T23:05:27.527Z,62.06
2022-08-27T23:07:55.777Z,62.24
2022-08-27T23:10:25.271Z,62.40
2022-08-27T23:12:54.558Z,62.65
2022-08-27T23:15:24.628Z,62.72
2022-08-27T23:17:53.176Z,62.77
2022-08-27T23:20:23.634Z,62.89
2022-08-27T23:22:52.897Z,62.63
2022-08-27T23:25:43.309Z,62.98
2022-08-27T23:28:14.760Z,62.80
2022-08-27T23:30:44.655Z,62.94
2022-08-27T23:33:12.889Z,62.78
2022-08-27T23:35:47.676Z,62.53
2022-08-27T23:38:16.813Z,62.71
2022-08-27T23:40:45.465Z,62.70
2022-08-27T23:43:14.042Z,62.78
2022-08-27T23:45:41.827Z,62.74
2022-08-27T23:48:09.757Z,62.57
2022-08-27T23:50:38.623Z,62.55
2022-08-27T23:53:08.401Z,62.50
2022-08-27T23:55:36.379Z,62.52
2022-08-27T23:58:04.920Z,62.45
